Zim Yokohama — A8MY4 — position and weather

sailwx.info

Track history (hours):
 
Tides and Currents Weather Stations Pressure Air Temp Water Temp Dewpoint Dewpoint Depression Visibility Wind Speed Wind Dir Waves Ship Positions

Zim Yokohama

Last reported at 2018-Jun-17 11:37 UTC. Time now 2018-Jun-21 22:04 UTC.
Position N 32°49' E 034°23'.

Length 260 m; draft 12.3 m.

Type: Ship. MMSI: 636013436.

Date/timePositionNaut miles runAvg speedWind from/ knotsBaromVisibWave heightAir tempDewpointWater temp
2018-Jun-17 11:37N 32°49' E 034°23'1016.6
2018-Jun-17 11:02N 32°55' E 034°32'116.8
2018-Jun-17 10:59N 32°55' E 034°33'917.4
2018-Jun-17 10:28N 32°54' E 034°44'919.1
2018-Jun-17 10:00N 32°53' E 034°54'6 0.2
2018-Jun-16 05:58N 32°51' E 035°01'2 2.9
2018-Jun-16 05:23N 32°52' E 034°59'3 5.0
2018-Jun-16 04:53N 32°54' E 034°59'0 0.1
2018-Jun-16 04:29N 32°54' E 034°59'0 0.0
2018-Jun-16 03:59N 32°54' E 034°59'0 0.0
2018-Jun-16 03:29N 32°54' E 034°59'0 0.0
2018-Jun-16 02:59N 32°54' E 034°59'0 0.0
2018-Jun-16 02:26N 32°54' E 034°59'0 0.2
2018-Jun-16 01:56N 32°54' E 034°59'0 0.3
2018-Jun-16 01:29N 32°54' E 034°59'0 0.0
2018-Jun-16 00:59N 32°54' E 034°59'0 0.1
2018-Jun-16 00:26N 32°54' E 034°59'0 0.1
2018-Jun-15 23:56N 32°54' E 034°59'0 0.1
2018-Jun-15 23:23N 32°54' E 034°59'0 0.0
2018-Jun-15 22:59N 32°54' E 034°59'0 0.2
2018-Jun-15 22:29N 32°54' E 034°59'0 0.2
2018-Jun-15 21:56N 32°54' E 034°59'0 0.1
2018-Jun-15 21:29N 32°54' E 034°59'0 0.0
2018-Jun-15 20:59N 32°54' E 034°59'0 0.1
2018-Jun-15 20:29N 32°54' E 034°59'0 0.0
2018-Jun-15 19:50N 32°54' E 034°59'0 0.1
2018-Jun-15 19:26N 32°54' E 034°59'0 0.1
2018-Jun-15 18:56N 32°54' E 034°59'0 0.0
2018-Jun-15 18:26N 32°54' E 034°59'0 0.1
2018-Jun-15 17:47N 32°54' E 034°59'0 1.6
2018-Jun-15 17:29N 32°54' E 034°59'713.4
2018-Jun-15 17:00N 32°55' E 034°51'916.1
2018-Jun-15 16:28N 32°57' E 034°41'715.9
2018-Jun-15 16:00N 32°58' E 034°32'816.0
2018-Jun-15 15:30N 33°00' E 034°23'1416.1
2018-Jun-15 14:37N 33°07' E 034°08'217.5
2018-Jun-15 14:30N 33°08' E 034°06'918.1
2018-Jun-15 14:00N 33°12' E 033°56'1118.2
2018-Jun-15 13:25N 33°17' E 033°45'818.2
2018-Jun-15 13:00N 33°20' E 033°37'918.1
2018-Jun-15 12:30N 33°24' E 033°27'918.2
2018-Jun-15 12:00N 33°28' E 033°17'918.3
2018-Jun-15 11:30N 33°32' E 033°08'1018.4
2018-Jun-15 10:56N 33°37' E 032°56'818.3
2018-Jun-15 10:30N 33°41' E 032°48'918.3
2018-Jun-15 10:00N 33°45' E 032°38'918.1
2018-Jun-15 09:30N 33°49' E 032°29'918.2
2018-Jun-15 09:00N 33°53' E 032°19'918.1
2018-Jun-15 08:30N 33°57' E 032°09'1018.1
2018-Jun-15 07:58N 34°02' E 031°59'918.6
2018-Jun-15 07:30N 34°06' E 031°49'10718.9
2018-Jun-15 01:49N 34°55' E 029°53'619.2
2018-Jun-15 01:30N 34°57' E 029°47'23918.6
2018-Jun-14 12:42N 37°26' E 025°56'418.4
2018-Jun-14 12:30N 37°29' E 025°53'1218.3
2018-Jun-14 11:50N 37°40' E 025°47'618.8
2018-Jun-14 11:30N 37°46' E 025°45'12818.6
2018-Jun-14 04:36N 39°55' E 025°50'219.6
2018-Jun-14 04:30N 39°56' E 025°52'1418.6
2018-Jun-14 03:46N 40°01' E 026°08'413.3
2018-Jun-14 03:30N 40°02' E 026°13'1212.9
2018-Jun-14 02:34N 40°12' E 026°23'114.2
2018-Jun-14 02:30N 40°12' E 026°24'1912.7
2018-Jun-14 01:00N 40°25' E 026°43'611.1
2018-Jun-14 00:28N 40°28' E 026°49'816.0
2018-Jun-13 23:57N 40°31' E 026°59'3418.6
2018-Jun-13 22:09N 40°46' E 027°39'518.6
2018-Jun-13 21:52N 40°47' E 027°46'718.9
2018-Jun-13 21:30N 40°48' E 027°55'918.8
2018-Jun-13 21:00N 40°49' E 028°07'1018.8
2018-Jun-13 20:28N 40°51' E 028°20'918.7
2018-Jun-13 20:00N 40°52' E 028°31'816.1
2018-Jun-13 19:30N 40°55' E 028°41'48 1.2
2018-Jun-12 03:07N 41°33' E 029°21'0 3.0
2018-Jun-12 02:58N 41°34' E 029°20'611.4
2018-Jun-12 02:29N 41°39' E 029°18'715.8
2018-Jun-12 02:00N 41°47' E 029°20'1019.4
2018-Jun-12 01:30N 41°56' E 029°23'1021.0
2018-Jun-12 01:00N 42°06' E 029°27'1020.8
2018-Jun-12 00:30N 42°16' E 029°31'1020.8
2018-Jun-12 00:01N 42°26' E 029°35'1020.9
2018-Jun-11 23:30N 42°36' E 029°39'1021.0
2018-Jun-11 23:01N 42°46' E 029°43'1121.0
2018-Jun-11 22:30N 42°56' E 029°47'1121.1
2018-Jun-11 22:01N 43°06' E 029°51'1121.0
2018-Jun-11 21:30N 43°16' E 029°55'1121.2
2018-Jun-11 21:00N 43°27' E 029°59'1121.4
2018-Jun-11 20:30N 43°37' E 030°03'1121.8
2018-Jun-11 20:00N 43°47' E 030°07'1121.5
2018-Jun-11 19:30N 43°58' E 030°11'1021.1
2018-Jun-11 19:01N 44°08' E 030°15'1121.3
2018-Jun-11 18:30N 44°18' E 030°19'1121.4
2018-Jun-11 18:01N 44°29' E 030°23'1121.3
2018-Jun-11 17:31N 44°39' E 030°26'1121.2
2018-Jun-11 17:01N 44°49' E 030°31'1121.2
2018-Jun-11 16:31N 44°59' E 030°35'1121.3
2018-Jun-11 16:01N 45°09' E 030°39'1121.3
2018-Jun-11 15:31N 45°20' E 030°43'1121.2
2018-Jun-11 15:00N 45°30' E 030°48'1221.1
2018-Jun-11 14:27N 45°41' E 030°54'921.2
2018-Jun-11 14:00N 45°50' E 030°58'1021.0
2018-Jun-11 13:30N 45°60' E 031°02'1019.8
2018-Jun-11 13:01N 46°10' E 031°01'1020.4
2018-Jun-11 12:31N 46°18' E 030°53'1019.7
2018-Jun-11 12:01N 46°28' E 030°49'3 6.3
2018-Jun-11 11:29N 46°30' E 030°46'0 0.8
2018-Jun-11 11:00N 46°29' E 030°46'0 0.0
2018-Jun-11 10:30N 46°29' E 030°46'0 0.0
2018-Jun-11 09:59N 46°29' E 030°46'0 0.0
2018-Jun-11 09:30N 46°29' E 030°46'0 0.0
2018-Jun-11 08:59N 46°29' E 030°46'0 0.0
2018-Jun-11 08:30N 46°29' E 030°46'0 0.0
2018-Jun-11 08:00N 46°29' E 030°46'0 0.0
2018-Jun-11 07:30N 46°29' E 030°46'0 0.0
2018-Jun-11 07:00N 46°29' E 030°46'0 0.0
2018-Jun-11 06:30N 46°29' E 030°46'0 0.0
2018-Jun-11 06:00N 46°29' E 030°46'0 0.0
2018-Jun-11 05:30N 46°29' E 030°46'0 0.0
2018-Jun-11 05:00N 46°29' E 030°46'0 0.0
2018-Jun-11 04:30N 46°29' E 030°46'0 0.0
2018-Jun-11 04:00N 46°29' E 030°46'0 0.0
2018-Jun-11 03:30N 46°29' E 030°46'0 0.0
2018-Jun-11 03:00N 46°29' E 030°46'0 0.0
2018-Jun-11 02:30N 46°29' E 030°46'0 0.0
2018-Jun-11 02:00N 46°29' E 030°46'0 0.0
2018-Jun-11 01:30N 46°29' E 030°46'0 0.0
2018-Jun-11 01:00N 46°29' E 030°46'0 0.0
2018-Jun-11 00:30N 46°29' E 030°46'0 0.0
2018-Jun-11 00:00N 46°29' E 030°46'0 0.0
2018-Jun-10 23:30N 46°29' E 030°46'0 0.0
2018-Jun-10 22:59N 46°29' E 030°46'0 0.0
2018-Jun-10 22:30N 46°29' E 030°46'0 0.0
2018-Jun-10 22:00N 46°29' E 030°46'0 0.0
2018-Jun-10 21:30N 46°29' E 030°46'0 0.0
2018-Jun-10 21:00N 46°29' E 030°46'0 0.0
2018-Jun-10 20:30N 46°29' E 030°46'0 0.0
2018-Jun-10 20:00N 46°29' E 030°46'0 0.0
2018-Jun-10 19:30N 46°29' E 030°46'0 0.0
2018-Jun-10 19:00N 46°29' E 030°46'0 0.0
2018-Jun-10 18:30N 46°29' E 030°46'0 0.0
2018-Jun-10 18:00N 46°29' E 030°46'0 0.0
2018-Jun-10 17:30N 46°29' E 030°46'0 0.0
2018-Jun-10 17:00N 46°29' E 030°46'0 0.0
2018-Jun-10 16:30N 46°29' E 030°46'0 0.0
2018-Jun-10 16:00N 46°29' E 030°46'0 0.0
2018-Jun-10 15:30N 46°29' E 030°46'0 0.0
2018-Jun-10 15:00N 46°29' E 030°46'0 0.0
2018-Jun-10 14:30N 46°29' E 030°46'0 0.0
2018-Jun-10 13:30N 46°29' E 030°46'0 0.0
2018-Jun-10 13:00N 46°29' E 030°46'0 0.0
2018-Jun-10 12:30N 46°29' E 030°46'1 2.8
2018-Jun-10 12:00N 46°30' E 030°48'4 8.5
2018-Jun-10 11:30N 46°27' E 030°51'713.1
2018-Jun-10 11:00N 46°20' E 030°54'714.3
2018-Jun-10 10:31N 46°15' E 031°00'918.6
2018-Jun-10 10:00N 46°08' E 031°09'918.6
2018-Jun-10 09:31N 46°01' E 031°19'918.6
2018-Jun-10 09:00N 45°54' E 031°28'918.6
2018-Jun-10 08:30N 45°47' E 031°37'918.5
2018-Jun-10 08:00N 45°41' E 031°46'918.2
2018-Jun-10 07:30N 45°34' E 031°54'918.2
2018-Jun-10 07:00N 45°27' E 032°02'918.8
2018-Jun-10 06:30N 45°19' E 032°11'918.6
2018-Jun-10 06:01N 45°13' E 032°20'918.4
2018-Jun-10 05:31N 45°06' E 032°28'918.6
2018-Jun-10 05:00N 44°59' E 032°37'2418.6
2018-Jun-10 03:41N 44°40' E 033°00'718.6
2018-Jun-10 03:18N 44°35' E 033°07'518.6
2018-Jun-10 03:00N 44°31' E 033°12'918.3
2018-Jun-10 02:31N 44°24' E 033°20'918.1
2018-Jun-10 02:00N 44°18' E 033°30'1018.6
2018-Jun-10 01:29N 44°17' E 033°43'14618.2
2018-Jun-09 17:29N 44°20' E 037°07'918.5
2018-Jun-09 17:00N 44°24' E 037°18'918.6
2018-Jun-09 16:31N 44°28' E 037°30'918.6
2018-Jun-09 16:01N 44°33' E 037°41'1211.8
2018-Jun-09 15:00N 44°43' E 037°48'1 1.3
2018-Jun-09 14:28N 44°44' E 037°47'0 0.0
2018-Jun-09 13:58N 44°44' E 037°47'0 0.0
2018-Jun-09 13:28N 44°44' E 037°47'0 0.0
2018-Jun-09 12:58N 44°44' E 037°47'0 0.0
2018-Jun-09 12:28N 44°44' E 037°47'0 0.0
2018-Jun-09 11:58N 44°44' E 037°47'0 0.0
2018-Jun-09 11:28N 44°44' E 037°47'0 0.0
2018-Jun-09 10:58N 44°44' E 037°47'0 0.0
2018-Jun-09 10:28N 44°44' E 037°47'0 0.0
2018-Jun-09 09:58N 44°44' E 037°47'0 0.0
2018-Jun-09 09:28N 44°44' E 037°47'0 0.0
2018-Jun-09 08:58N 44°44' E 037°47'0 0.0
2018-Jun-09 08:28N 44°44' E 037°47'0 0.0
2018-Jun-09 07:58N 44°44' E 037°47'0 0.0
2018-Jun-09 07:28N 44°44' E 037°47'0 0.0
2018-Jun-09 06:58N 44°44' E 037°47'0 0.0
2018-Jun-09 06:28N 44°44' E 037°47'0 0.0
2018-Jun-09 05:58N 44°44' E 037°47'0 0.0
2018-Jun-09 05:28N 44°44' E 037°47'0 0.0
2018-Jun-09 04:58N 44°44' E 037°47'0 0.0
2018-Jun-09 04:28N 44°44' E 037°47'0 0.0
2018-Jun-09 03:58N 44°44' E 037°47'0 0.0
2018-Jun-09 03:25N 44°44' E 037°47'0 0.0
2018-Jun-09 02:58N 44°44' E 037°47'0 0.0
2018-Jun-09 02:28N 44°44' E 037°47'0 0.0
2018-Jun-09 01:58N 44°44' E 037°47'0 0.0
2018-Jun-09 01:28N 44°44' E 037°47'0 0.0
2018-Jun-09 00:58N 44°44' E 037°47'0 0.0
2018-Jun-09 00:28N 44°44' E 037°47'0 0.0
2018-Jun-08 23:58N 44°44' E 037°47'0 0.0
2018-Jun-08 23:28N 44°44' E 037°47'0 0.0
2018-Jun-08 22:58N 44°44' E 037°47'0 0.0
2018-Jun-08 22:28N 44°44' E 037°47'0 0.0
2018-Jun-08 21:58N 44°44' E 037°47'0 0.0
2018-Jun-08 21:28N 44°44' E 037°47'0 0.0
2018-Jun-08 20:55N 44°44' E 037°47'0 0.0
2018-Jun-08 20:28N 44°44' E 037°47'0 0.0
2018-Jun-08 19:58N 44°44' E 037°47'0 0.0
2018-Jun-08 19:28N 44°44' E 037°47'0 0.0
2018-Jun-08 18:58N 44°44' E 037°47'0 0.0
2018-Jun-08 18:28N 44°44' E 037°47'0 0.0
2018-Jun-08 17:58N 44°44' E 037°47'0 0.0
2018-Jun-08 17:28N 44°44' E 037°47'0 0.0
2018-Jun-08 16:58N 44°44' E 037°47'0 0.0
2018-Jun-08 16:28N 44°44' E 037°47'0 0.0
2018-Jun-08 15:58N 44°44' E 037°47'0 0.0
2018-Jun-08 15:28N 44°44' E 037°47'0 0.0
2018-Jun-08 14:58N 44°44' E 037°47'0 0.0
2018-Jun-08 14:28N 44°44' E 037°47'0 0.0
2018-Jun-08 13:58N 44°44' E 037°47'0 0.0
2018-Jun-08 13:28N 44°44' E 037°47'0 0.0
2018-Jun-08 12:58N 44°44' E 037°47'0 0.0
2018-Jun-08 12:28N 44°44' E 037°47'0 0.0
2018-Jun-08 11:58N 44°44' E 037°47'0 0.0
2018-Jun-08 11:28N 44°44' E 037°47'0 0.0
2018-Jun-08 10:58N 44°44' E 037°47'0 0.0
2018-Jun-08 10:28N 44°44' E 037°47'0 0.0
2018-Jun-08 09:58N 44°44' E 037°47'0 0.0
2018-Jun-08 09:28N 44°44' E 037°47'0 0.0
2018-Jun-08 08:58N 44°44' E 037°47'0 0.0
2018-Jun-08 08:28N 44°44' E 037°47'0 0.0
2018-Jun-08 07:58N 44°44' E 037°47'0 0.0
2018-Jun-08 07:28N 44°44' E 037°47'0 0.0
2018-Jun-08 06:58N 44°44' E 037°47'0 0.0
2018-Jun-08 06:28N 44°44' E 037°47'0 0.0
2018-Jun-08 05:58N 44°44' E 037°47'0 0.0
2018-Jun-08 05:28N 44°44' E 037°47'0 0.0
2018-Jun-08 04:58N 44°44' E 037°47'0 0.0
2018-Jun-08 04:28N 44°44' E 037°47'0 0.0
2018-Jun-08 03:58N 44°44' E 037°47'0 0.0
2018-Jun-08 03:28N 44°44' E 037°47'0 0.0
2018-Jun-08 02:58N 44°44' E 037°47'0 0.0
2018-Jun-08 02:28N 44°44' E 037°47'0 0.0
2018-Jun-08 01:58N 44°44' E 037°47'0 0.0
2018-Jun-08 01:28N 44°44' E 037°47'0 0.0
2018-Jun-08 00:58N 44°44' E 037°47'0 0.0
2018-Jun-08 00:28N 44°44' E 037°47'0 0.0
2018-Jun-07 23:58N 44°44' E 037°47'0 0.0
2018-Jun-07 23:28N 44°44' E 037°47'0 0.0
2018-Jun-07 22:58N 44°44' E 037°47'0 0.0
2018-Jun-07 22:28N 44°44' E 037°47'0 0.0
2018-Jun-07 21:58N 44°44' E 037°47'0 0.0
2018-Jun-07 21:28N 44°44' E 037°47'0 0.0
2018-Jun-07 20:58N 44°44' E 037°47'0 0.0
2018-Jun-07 20:28N 44°44' E 037°47'0 0.0
2018-Jun-07 19:58N 44°44' E 037°47'0 0.0
2018-Jun-07 19:28N 44°44' E 037°47'0 0.0
2018-Jun-07 18:58N 44°44' E 037°47'0 0.0
2018-Jun-07 18:28N 44°44' E 037°47'0 0.0
2018-Jun-07 17:58N 44°44' E 037°47'0 0.0
2018-Jun-07 17:28N 44°44' E 037°47'0 0.0
2018-Jun-07 16:58N 44°44' E 037°47'0 0.0
2018-Jun-07 16:28N 44°44' E 037°47'0 0.0
2018-Jun-07 15:58N 44°44' E 037°47'0 0.0
2018-Jun-07 15:30N 44°44' E 037°47'0 0.7
2018-Jun-07 15:01N 44°44' E 037°47'2 3.6
2018-Jun-07 14:30N 44°42' E 037°49'510.3
2018-Jun-07 14:01N 44°37' E 037°51'815.7
2018-Jun-07 13:31N 44°31' E 037°44'917.7
2018-Jun-07 13:00N 44°26' E 037°34'1019.9
2018-Jun-07 12:30N 44°21' E 037°22'711.6
2018-Jun-07 11:55N 44°17' E 037°15'  
Track history (hours):
 
Tides and Currents Weather Stations Pressure Air Temp Water Temp Dewpoint Dewpoint Depression Visibility Wind Speed Wind Dir Waves Ship Positions

Zim Yokohama

Last reported at 2018-Jun-17 11:37 UTC. Time now 2018-Jun-21 22:04 UTC.
Position N 32°49' E 034°23'.

Length 260 m; draft 12.3 m.

Type: Ship. MMSI: 636013436.

Date/timePositionNaut miles runAvg speedWind from/ knotsBaromVisibWave heightAir tempDewpointWater temp
2018-Jun-17 11:37N 32°49' E 034°23'1016.6
2018-Jun-17 11:02N 32°55' E 034°32'116.8
2018-Jun-17 10:59N 32°55' E 034°33'917.4
2018-Jun-17 10:28N 32°54' E 034°44'919.1
2018-Jun-17 10:00N 32°53' E 034°54'6 0.2
2018-Jun-16 05:58N 32°51' E 035°01'2 2.9
2018-Jun-16 05:23N 32°52' E 034°59'3 5.0
2018-Jun-16 04:53N 32°54' E 034°59'0 0.1
2018-Jun-16 04:29N 32°54' E 034°59'0 0.0
2018-Jun-16 03:59N 32°54' E 034°59'0 0.0
2018-Jun-16 03:29N 32°54' E 034°59'0 0.0
2018-Jun-16 02:59N 32°54' E 034°59'0 0.0
2018-Jun-16 02:26N 32°54' E 034°59'0 0.2
2018-Jun-16 01:56N 32°54' E 034°59'0 0.3
2018-Jun-16 01:29N 32°54' E 034°59'0 0.0
2018-Jun-16 00:59N 32°54' E 034°59'0 0.1
2018-Jun-16 00:26N 32°54' E 034°59'0 0.1
2018-Jun-15 23:56N 32°54' E 034°59'0 0.1
2018-Jun-15 23:23N 32°54' E 034°59'0 0.0
2018-Jun-15 22:59N 32°54' E 034°59'0 0.2
2018-Jun-15 22:29N 32°54' E 034°59'0 0.2
2018-Jun-15 21:56N 32°54' E 034°59'0 0.1
2018-Jun-15 21:29N 32°54' E 034°59'0 0.0
2018-Jun-15 20:59N 32°54' E 034°59'0 0.1
2018-Jun-15 20:29N 32°54' E 034°59'0 0.0
2018-Jun-15 19:50N 32°54' E 034°59'0 0.1
2018-Jun-15 19:26N 32°54' E 034°59'0 0.1
2018-Jun-15 18:56N 32°54' E 034°59'0 0.0
2018-Jun-15 18:26N 32°54' E 034°59'0 0.1
2018-Jun-15 17:47N 32°54' E 034°59'0 1.6
2018-Jun-15 17:29N 32°54' E 034°59'713.4
2018-Jun-15 17:00N 32°55' E 034°51'916.1
2018-Jun-15 16:28N 32°57' E 034°41'715.9
2018-Jun-15 16:00N 32°58' E 034°32'816.0
2018-Jun-15 15:30N 33°00' E 034°23'1416.1
2018-Jun-15 14:37N 33°07' E 034°08'217.5
2018-Jun-15 14:30N 33°08' E 034°06'918.1
2018-Jun-15 14:00N 33°12' E 033°56'1118.2
2018-Jun-15 13:25N 33°17' E 033°45'818.2
2018-Jun-15 13:00N 33°20' E 033°37'918.1
2018-Jun-15 12:30N 33°24' E 033°27'918.2
2018-Jun-15 12:00N 33°28' E 033°17'918.3
2018-Jun-15 11:30N 33°32' E 033°08'1018.4
2018-Jun-15 10:56N 33°37' E 032°56'818.3
2018-Jun-15 10:30N 33°41' E 032°48'918.3
2018-Jun-15 10:00N 33°45' E 032°38'918.1
2018-Jun-15 09:30N 33°49' E 032°29'918.2
2018-Jun-15 09:00N 33°53' E 032°19'918.1
2018-Jun-15 08:30N 33°57' E 032°09'1018.1
2018-Jun-15 07:58N 34°02' E 031°59'918.6
2018-Jun-15 07:30N 34°06' E 031°49'10718.9
2018-Jun-15 01:49N 34°55' E 029°53'619.2
2018-Jun-15 01:30N 34°57' E 029°47'23918.6
2018-Jun-14 12:42N 37°26' E 025°56'418.4
2018-Jun-14 12:30N 37°29' E 025°53'1218.3
2018-Jun-14 11:50N 37°40' E 025°47'618.8
2018-Jun-14 11:30N 37°46' E 025°45'12818.6
2018-Jun-14 04:36N 39°55' E 025°50'219.6
2018-Jun-14 04:30N 39°56' E 025°52'1418.6
2018-Jun-14 03:46N 40°01' E 026°08'413.3
2018-Jun-14 03:30N 40°02' E 026°13'1212.9
2018-Jun-14 02:34N 40°12' E 026°23'114.2
2018-Jun-14 02:30N 40°12' E 026°24'1912.7
2018-Jun-14 01:00N 40°25' E 026°43'611.1
2018-Jun-14 00:28N 40°28' E 026°49'816.0
2018-Jun-13 23:57N 40°31' E 026°59'3418.6
2018-Jun-13 22:09N 40°46' E 027°39'518.6
2018-Jun-13 21:52N 40°47' E 027°46'718.9
2018-Jun-13 21:30N 40°48' E 027°55'918.8
2018-Jun-13 21:00N 40°49' E 028°07'1018.8
2018-Jun-13 20:28N 40°51' E 028°20'918.7
2018-Jun-13 20:00N 40°52' E 028°31'816.1
2018-Jun-13 19:30N 40°55' E 028°41'48 1.2
2018-Jun-12 03:07N 41°33' E 029°21'0 3.0
2018-Jun-12 02:58N 41°34' E 029°20'611.4
2018-Jun-12 02:29N 41°39' E 029°18'715.8
2018-Jun-12 02:00N 41°47' E 029°20'1019.4
2018-Jun-12 01:30N 41°56' E 029°23'1021.0
2018-Jun-12 01:00N 42°06' E 029°27'1020.8
2018-Jun-12 00:30N 42°16' E 029°31'1020.8
2018-Jun-12 00:01N 42°26' E 029°35'1020.9
2018-Jun-11 23:30N 42°36' E 029°39'1021.0
2018-Jun-11 23:01N 42°46' E 029°43'1121.0
2018-Jun-11 22:30N 42°56' E 029°47'1121.1
2018-Jun-11 22:01N 43°06' E 029°51'1121.0
2018-Jun-11 21:30N 43°16' E 029°55'1121.2
2018-Jun-11 21:00N 43°27' E 029°59'1121.4
2018-Jun-11 20:30N 43°37' E 030°03'1121.8
2018-Jun-11 20:00N 43°47' E 030°07'1121.5
2018-Jun-11 19:30N 43°58' E 030°11'1021.1
2018-Jun-11 19:01N 44°08' E 030°15'1121.3
2018-Jun-11 18:30N 44°18' E 030°19'1121.4
2018-Jun-11 18:01N 44°29' E 030°23'1121.3
2018-Jun-11 17:31N 44°39' E 030°26'1121.2
2018-Jun-11 17:01N 44°49' E 030°31'1121.2
2018-Jun-11 16:31N 44°59' E 030°35'1121.3
2018-Jun-11 16:01N 45°09' E 030°39'1121.3
2018-Jun-11 15:31N 45°20' E 030°43'1121.2
2018-Jun-11 15:00N 45°30' E 030°48'1221.1
2018-Jun-11 14:27N 45°41' E 030°54'921.2
2018-Jun-11 14:00N 45°50' E 030°58'1021.0
2018-Jun-11 13:30N 45°60' E 031°02'1019.8
2018-Jun-11 13:01N 46°10' E 031°01'1020.4
2018-Jun-11 12:31N 46°18' E 030°53'1019.7
2018-Jun-11 12:01N 46°28' E 030°49'3 6.3
2018-Jun-11 11:29N 46°30' E 030°46'0 0.8
2018-Jun-11 11:00N 46°29' E 030°46'0 0.0
2018-Jun-11 10:30N 46°29' E 030°46'0 0.0
2018-Jun-11 09:59N 46°29' E 030°46'0 0.0
2018-Jun-11 09:30N 46°29' E 030°46'0 0.0
2018-Jun-11 08:59N 46°29' E 030°46'0 0.0
2018-Jun-11 08:30N 46°29' E 030°46'0 0.0
2018-Jun-11 08:00N 46°29' E 030°46'0 0.0
2018-Jun-11 07:30N 46°29' E 030°46'0 0.0
2018-Jun-11 07:00N 46°29' E 030°46'0 0.0
2018-Jun-11 06:30N 46°29' E 030°46'0 0.0
2018-Jun-11 06:00N 46°29' E 030°46'0 0.0
2018-Jun-11 05:30N 46°29' E 030°46'0 0.0
2018-Jun-11 05:00N 46°29' E 030°46'0 0.0
2018-Jun-11 04:30N 46°29' E 030°46'0 0.0
2018-Jun-11 04:00N 46°29' E 030°46'0 0.0
2018-Jun-11 03:30N 46°29' E 030°46'0 0.0
2018-Jun-11 03:00N 46°29' E 030°46'0 0.0
2018-Jun-11 02:30N 46°29' E 030°46'0 0.0
2018-Jun-11 02:00N 46°29' E 030°46'0 0.0
2018-Jun-11 01:30N 46°29' E 030°46'0 0.0
2018-Jun-11 01:00N 46°29' E 030°46'0 0.0
2018-Jun-11 00:30N 46°29' E 030°46'0 0.0
2018-Jun-11 00:00N 46°29' E 030°46'0 0.0
2018-Jun-10 23:30N 46°29' E 030°46'0 0.0
2018-Jun-10 22:59N 46°29' E 030°46'0 0.0
2018-Jun-10 22:30N 46°29' E 030°46'0 0.0
2018-Jun-10 22:00N 46°29' E 030°46'0 0.0
2018-Jun-10 21:30N 46°29' E 030°46'0 0.0
2018-Jun-10 21:00N 46°29' E 030°46'0 0.0
2018-Jun-10 20:30N 46°29' E 030°46'0 0.0
2018-Jun-10 20:00N 46°29' E 030°46'0 0.0
2018-Jun-10 19:30N 46°29' E 030°46'0 0.0
2018-Jun-10 19:00N 46°29' E 030°46'0 0.0
2018-Jun-10 18:30N 46°29' E 030°46'0 0.0
2018-Jun-10 18:00N 46°29' E 030°46'0 0.0
2018-Jun-10 17:30N 46°29' E 030°46'0 0.0
2018-Jun-10 17:00N 46°29' E 030°46'0 0.0
2018-Jun-10 16:30N 46°29' E 030°46'0 0.0
2018-Jun-10 16:00N 46°29' E 030°46'0 0.0
2018-Jun-10 15:30N 46°29' E 030°46'0 0.0
2018-Jun-10 15:00N 46°29' E 030°46'0 0.0
2018-Jun-10 14:30N 46°29' E 030°46'0 0.0
2018-Jun-10 13:30N 46°29' E 030°46'0 0.0
2018-Jun-10 13:00N 46°29' E 030°46'0 0.0
2018-Jun-10 12:30N 46°29' E 030°46'1 2.8
2018-Jun-10 12:00N 46°30' E 030°48'4 8.5
2018-Jun-10 11:30N 46°27' E 030°51'713.1
2018-Jun-10 11:00N 46°20' E 030°54'714.3
2018-Jun-10 10:31N 46°15' E 031°00'918.6
2018-Jun-10 10:00N 46°08' E 031°09'918.6
2018-Jun-10 09:31N 46°01' E 031°19'918.6
2018-Jun-10 09:00N 45°54' E 031°28'918.6
2018-Jun-10 08:30N 45°47' E 031°37'918.5
2018-Jun-10 08:00N 45°41' E 031°46'918.2
2018-Jun-10 07:30N 45°34' E 031°54'918.2
2018-Jun-10 07:00N 45°27' E 032°02'918.8
2018-Jun-10 06:30N 45°19' E 032°11'918.6
2018-Jun-10 06:01N 45°13' E 032°20'918.4
2018-Jun-10 05:31N 45°06' E 032°28'918.6
2018-Jun-10 05:00N 44°59' E 032°37'2418.6
2018-Jun-10 03:41N 44°40' E 033°00'718.6
2018-Jun-10 03:18N 44°35' E 033°07'518.6
2018-Jun-10 03:00N 44°31' E 033°12'918.3
2018-Jun-10 02:31N 44°24' E 033°20'918.1
2018-Jun-10 02:00N 44°18' E 033°30'1018.6
2018-Jun-10 01:29N 44°17' E 033°43'14618.2
2018-Jun-09 17:29N 44°20' E 037°07'918.5
2018-Jun-09 17:00N 44°24' E 037°18'918.6
2018-Jun-09 16:31N 44°28' E 037°30'918.6
2018-Jun-09 16:01N 44°33' E 037°41'1211.8
2018-Jun-09 15:00N 44°43' E 037°48'1 1.3
2018-Jun-09 14:28N 44°44' E 037°47'0 0.0
2018-Jun-09 13:58N 44°44' E 037°47'0 0.0
2018-Jun-09 13:28N 44°44' E 037°47'0 0.0
2018-Jun-09 12:58N 44°44' E 037°47'0 0.0
2018-Jun-09 12:28N 44°44' E 037°47'0 0.0
2018-Jun-09 11:58N 44°44' E 037°47'0 0.0
2018-Jun-09 11:28N 44°44' E 037°47'0 0.0
2018-Jun-09 10:58N 44°44' E 037°47'0 0.0
2018-Jun-09 10:28N 44°44' E 037°47'0 0.0
2018-Jun-09 09:58N 44°44' E 037°47'0 0.0
2018-Jun-09 09:28N 44°44' E 037°47'0 0.0
2018-Jun-09 08:58N 44°44' E 037°47'0 0.0
2018-Jun-09 08:28N 44°44' E 037°47'0 0.0
2018-Jun-09 07:58N 44°44' E 037°47'0 0.0
2018-Jun-09 07:28N 44°44' E 037°47'0 0.0
2018-Jun-09 06:58N 44°44' E 037°47'0 0.0
2018-Jun-09 06:28N 44°44' E 037°47'0 0.0
2018-Jun-09 05:58N 44°44' E 037°47'0 0.0
2018-Jun-09 05:28N 44°44' E 037°47'0 0.0
2018-Jun-09 04:58N 44°44' E 037°47'0 0.0
2018-Jun-09 04:28N 44°44' E 037°47'0 0.0
2018-Jun-09 03:58N 44°44' E 037°47'0 0.0
2018-Jun-09 03:25N 44°44' E 037°47'0 0.0
2018-Jun-09 02:58N 44°44' E 037°47'0 0.0
2018-Jun-09 02:28N 44°44' E 037°47'0 0.0
2018-Jun-09 01:58N 44°44' E 037°47'0 0.0
2018-Jun-09 01:28N 44°44' E 037°47'0 0.0
2018-Jun-09 00:58N 44°44' E 037°47'0 0.0
2018-Jun-09 00:28N 44°44' E 037°47'0 0.0
2018-Jun-08 23:58N 44°44' E 037°47'0 0.0
2018-Jun-08 23:28N 44°44' E 037°47'0 0.0
2018-Jun-08 22:58N 44°44' E 037°47'0 0.0
2018-Jun-08 22:28N 44°44' E 037°47'0 0.0
2018-Jun-08 21:58N 44°44' E 037°47'0 0.0
2018-Jun-08 21:28N 44°44' E 037°47'0 0.0
2018-Jun-08 20:55N 44°44' E 037°47'0 0.0
2018-Jun-08 20:28N 44°44' E 037°47'0 0.0
2018-Jun-08 19:58N 44°44' E 037°47'0 0.0
2018-Jun-08 19:28N 44°44' E 037°47'0 0.0
2018-Jun-08 18:58N 44°44' E 037°47'0 0.0
2018-Jun-08 18:28N 44°44' E 037°47'0 0.0
2018-Jun-08 17:58N 44°44' E 037°47'0 0.0
2018-Jun-08 17:28N 44°44' E 037°47'0 0.0
2018-Jun-08 16:58N 44°44' E 037°47'0 0.0
2018-Jun-08 16:28N 44°44' E 037°47'0 0.0
2018-Jun-08 15:58N 44°44' E 037°47'0 0.0
2018-Jun-08 15:28N 44°44' E 037°47'0 0.0
2018-Jun-08 14:58N 44°44' E 037°47'0 0.0
2018-Jun-08 14:28N 44°44' E 037°47'0 0.0
2018-Jun-08 13:58N 44°44' E 037°47'0 0.0
2018-Jun-08 13:28N 44°44' E 037°47'0 0.0
2018-Jun-08 12:58N 44°44' E 037°47'0 0.0
2018-Jun-08 12:28N 44°44' E 037°47'0 0.0
2018-Jun-08 11:58N 44°44' E 037°47'0 0.0
2018-Jun-08 11:28N 44°44' E 037°47'0 0.0
2018-Jun-08 10:58N 44°44' E 037°47'0 0.0
2018-Jun-08 10:28N 44°44' E 037°47'0 0.0
2018-Jun-08 09:58N 44°44' E 037°47'0 0.0
2018-Jun-08 09:28N 44°44' E 037°47'0 0.0
2018-Jun-08 08:58N 44°44' E 037°47'0 0.0
2018-Jun-08 08:28N 44°44' E 037°47'0 0.0
2018-Jun-08 07:58N 44°44' E 037°47'0 0.0
2018-Jun-08 07:28N 44°44' E 037°47'0 0.0
2018-Jun-08 06:58N 44°44' E 037°47'0 0.0
2018-Jun-08 06:28N 44°44' E 037°47'0 0.0
2018-Jun-08 05:58N 44°44' E 037°47'0 0.0
2018-Jun-08 05:28N 44°44' E 037°47'0 0.0
2018-Jun-08 04:58N 44°44' E 037°47'0 0.0
2018-Jun-08 04:28N 44°44' E 037°47'0 0.0
2018-Jun-08 03:58N 44°44' E 037°47'0 0.0
2018-Jun-08 03:28N 44°44' E 037°47'0 0.0
2018-Jun-08 02:58N 44°44' E 037°47'0 0.0
2018-Jun-08 02:28N 44°44' E 037°47'0 0.0
2018-Jun-08 01:58N 44°44' E 037°47'0 0.0
2018-Jun-08 01:28N 44°44' E 037°47'0 0.0
2018-Jun-08 00:58N 44°44' E 037°47'0 0.0
2018-Jun-08 00:28N 44°44' E 037°47'0 0.0
2018-Jun-07 23:58N 44°44' E 037°47'0 0.0
2018-Jun-07 23:28N 44°44' E 037°47'0 0.0
2018-Jun-07 22:58N 44°44' E 037°47'0 0.0
2018-Jun-07 22:28N 44°44' E 037°47'0 0.0
2018-Jun-07 21:58N 44°44' E 037°47'0 0.0
2018-Jun-07 21:28N 44°44' E 037°47'0 0.0
2018-Jun-07 20:58N 44°44' E 037°47'0 0.0
2018-Jun-07 20:28N 44°44' E 037°47'0 0.0
2018-Jun-07 19:58N 44°44' E 037°47'0 0.0
2018-Jun-07 19:28N 44°44' E 037°47'0 0.0
2018-Jun-07 18:58N 44°44' E 037°47'0 0.0
2018-Jun-07 18:28N 44°44' E 037°47'0 0.0
2018-Jun-07 17:58N 44°44' E 037°47'0 0.0
2018-Jun-07 17:28N 44°44' E 037°47'0 0.0
2018-Jun-07 16:58N 44°44' E 037°47'0 0.0
2018-Jun-07 16:28N 44°44' E 037°47'0 0.0
2018-Jun-07 15:58N 44°44' E 037°47'0 0.0
2018-Jun-07 15:30N 44°44' E 037°47'0 0.7
2018-Jun-07 15:01N 44°44' E 037°47'2 3.6
2018-Jun-07 14:30N 44°42' E 037°49'510.3
2018-Jun-07 14:01N 44°37' E 037°51'815.7
2018-Jun-07 13:31N 44°31' E 037°44'917.7
2018-Jun-07 13:00N 44°26' E 037°34'1019.9
2018-Jun-07 12:30N 44°21' E 037°22'711.6
2018-Jun-07 11:55N 44°17' E 037°15'  

Dump ship's entire track history